CheckWX is a tool to help pilots better visualize weather data.  It is not intended as a substitute for an official pre-flight weather briefing.

10:19:42 UTC

EGHQ TAF
Newquay Cornwall Airport
Newquay, United Kingdom
TAF EGHQ 260759Z 2609/2618 25014KT 9999 FEW006 SCT012 TEMPO 2609/2610 7000 RA BKN005 PROB30 TEMPO 2609/2613 26018G28KT BECMG 2613/2615 21020G30KT TEMPO 2613/2618 8000 -RA PROB30 TEMPO 2613/2618 RA BKN012

Apr-26@
09:00 UTC

Apr-26 @ 09:00 UTC

Apr-26@
13:00 UTC

Apr-26 @ 13:00 UTC

TAF EGHQ 260759Z 2609/2618 25014KT 9999 FEW006 SCT012
Wind
  • 250° at 14 KTS
Cloud Levels
  • Few at 600' AGL
  • Scattered at 1,200' AGL

Apr-26@
09:00 UTC

Apr-26 @ 09:00 UTC

Apr-26@
10:00 UTC

Apr-26 @ 10:00 UTC

TEMPO 2609/2610 7000 RA BKN005

Expired

Conditions
Rain
Cloud Levels
  • Broken at 500' AGL

Apr-26@
09:00 UTC

Apr-26 @ 09:00 UTC

Apr-26@
13:00 UTC

Apr-26 @ 13:00 UTC

PROB30 TEMPO 2609/2613 26018G28KT

Temporary - 30% Likelihood

Temporary - 30% Likelihood during this time.

Wind
  • 260° at 18 KTS
  • {Gusting to 28 KTS

Apr-26@
13:00 UTC

Apr-26 @ 13:00 UTC

Apr-26@
18:00 UTC

Apr-26 @ 18:00 UTC

BECMG 2613/2615 21020G30KT

Becoming

Becoming Conditions expected by Fri, Apr 26, 2019 @ 15:00 UTC

Wind
  • 210° at 20 KTS
  • {Gusting to 30 KTS
Cloud Levels
  • Few at 600' AGL
  • Scattered at 1,200' AGL

Apr-26@
13:00 UTC

Apr-26 @ 13:00 UTC

Apr-26@
18:00 UTC

Apr-26 @ 18:00 UTC

TEMPO 2613/2618 8000 -RA

Temporary

Temporary Changes expected for less than half the time period

Conditions
Light Rain

Apr-26@
13:00 UTC

Apr-26 @ 13:00 UTC

Apr-26@
18:00 UTC

Apr-26 @ 18:00 UTC

PROB30 TEMPO 2613/2618 RA BKN012

Temporary - 30% Likelihood

Temporary - 30% Likelihood during this time.

Conditions
Rain
Cloud Levels
  • Broken at 1,200' AGL